sensor_id;sensor_type;location;lat;lon;timestamp;temperature;humidity
22908;DHT22;11620;50.050;8.690;2023-02-15T00:01:59;1.00;99.90
22908;DHT22;11620;50.050;8.690;2023-02-15T00:04:46;0.90;99.90
22908;DHT22;11620;50.050;8.690;2023-02-15T00:07:32;0.80;99.90
22908;DHT22;11620;50.050;8.690;2023-02-15T00:10:18;0.90;99.90
22908;DHT22;11620;50.050;8.690;2023-02-15T00:13:05;0.90;99.90
22908;DHT22;11620;50.050;8.690;2023-02-15T00:15:51;0.90;99.90
22908;DHT22;11620;50.050;8.690;2023-02-15T00:18:38;1.00;99.90
22908;DHT22;11620;50.050;8.690;2023-02-15T00:21:25;1.00;99.90
22908;DHT22;11620;50.050;8.690;2023-02-15T00:24:13;1.00;99.90
22908;DHT22;11620;50.050;8.690;2023-02-15T00:26:59;1.00;99.90
22908;DHT22;11620;50.050;8.690;2023-02-15T00:29:47;1.10;99.90
22908;DHT22;11620;50.050;8.690;2023-02-15T00:32:33;1.10;99.90
22908;DHT22;11620;50.050;8.690;2023-02-15T00:35:20;1.10;99.90
22908;DHT22;11620;50.050;8.690;2023-02-15T00:38:06;1.10;99.90
22908;DHT22;11620;50.050;8.690;2023-02-15T00:40:57;1.00;99.90
22908;DHT22;11620;50.050;8.690;2023-02-15T00:43:43;0.80;99.90
22908;DHT22;11620;50.050;8.690;2023-02-15T00:46:30;0.70;99.90
22908;DHT22;11620;50.050;8.690;2023-02-15T00:49:16;0.70;99.90
22908;DHT22;11620;50.050;8.690;2023-02-15T00:52:03;0.60;99.90
22908;DHT22;11620;50.050;8.690;2023-02-15T00:54:49;0.50;99.90
22908;DHT22;11620;50.050;8.690;2023-02-15T00:57:35;0.40;99.90
22908;DHT22;11620;50.050;8.690;2023-02-15T01:00:22;0.50;99.90
22908;DHT22;11620;50.050;8.690;2023-02-15T01:03:09;0.60;99.90
22908;DHT22;11620;50.050;8.690;2023-02-15T01:05:55;0.70;99.90
22908;DHT22;11620;50.050;8.690;2023-02-15T01:08:43;0.70;99.90
22908;DHT22;11620;50.050;8.690;2023-02-15T01:11:30;0.60;99.90
22908;DHT22;11620;50.050;8.690;2023-02-15T01:14:16;0.60;99.90
22908;DHT22;11620;50.050;8.690;2023-02-15T01:17:03;0.60;99.90
22908;DHT22;11620;50.050;8.690;2023-02-15T01:19:49;0.70;99.90
22908;DHT22;11620;50.050;8.690;2023-02-15T01:22:37;0.80;99.90
22908;DHT22;11620;50.050;8.690;2023-02-15T01:25:24;0.80;99.90
22908;DHT22;11620;50.050;8.690;2023-02-15T01:28:11;0.80;99.90
22908;DHT22;11620;50.050;8.690;2023-02-15T01:30:57;0.90;99.90
22908;DHT22;11620;50.050;8.690;2023-02-15T01:33:46;0.80;99.90
22908;DHT22;11620;50.050;8.690;2023-02-15T01:36:33;0.70;99.90
22908;DHT22;11620;50.050;8.690;2023-02-15T01:39:20;0.60;99.90
22908;DHT22;11620;50.050;8.690;2023-02-15T01:42:12;0.70;99.90
22908;DHT22;11620;50.050;8.690;2023-02-15T01:48:20;0.80;99.90
22908;DHT22;11620;50.050;8.690;2023-02-15T01:51:08;0.90;99.90
22908;DHT22;11620;50.050;8.690;2023-02-15T01:54:01;1.00;99.90
22908;DHT22;11620;50.050;8.690;2023-02-15T01:56:48;1.00;99.90
22908;DHT22;11620;50.050;8.690;2023-02-15T01:59:35;1.00;99.90
22908;DHT22;11620;50.050;8.690;2023-02-15T02:02:23;1.10;99.90
22908;DHT22;11620;50.050;8.690;2023-02-15T02:05:13;1.10;99.90
22908;DHT22;11620;50.050;8.690;2023-02-15T02:08:01;1.00;99.90
22908;DHT22;11620;50.050;8.690;2023-02-15T02:10:47;0.90;99.90
22908;DHT22;11620;50.050;8.690;2023-02-15T02:13:34;0.90;99.90
22908;DHT22;11620;50.050;8.690;2023-02-15T02:41:11;1.00;99.90
22908;DHT22;11620;50.050;8.690;2023-02-15T02:47:19;0.90;99.90
22908;DHT22;11620;50.050;8.690;2023-02-15T02:50:16;0.80;99.90
22908;DHT22;11620;50.050;8.690;2023-02-15T02:53:03;0.90;99.90
22908;DHT22;11620;50.050;8.690;2023-02-15T02:56:18;0.90;99.90
22908;DHT22;11620;50.050;8.690;2023-02-15T02:59:34;0.80;99.90
22908;DHT22;11620;50.050;8.690;2023-02-15T03:02:26;0.90;99.90
22908;DHT22;11620;50.050;8.690;2023-02-15T03:05:18;0.90;99.90
22908;DHT22;11620;50.050;8.690;2023-02-15T03:08:07;1.00;99.90
22908;DHT22;11620;50.050;8.690;2023-02-15T03:10:58;1.00;99.90
22908;DHT22;11620;50.050;8.690;2023-02-15T03:13:47;1.00;99.90
22908;DHT22;11620;50.050;8.690;2023-02-15T03:16:34;0.90;99.90
22908;DHT22;11620;50.050;8.690;2023-02-15T03:19:28;0.80;99.90
22908;DHT22;11620;50.050;8.690;2023-02-15T03:25:15;0.90;99.90
22908;DHT22;11620;50.050;8.690;2023-02-15T03:28:06;0.90;99.90
22908;DHT22;11620;50.050;8.690;2023-02-15T03:30:58;0.80;99.90
22908;DHT22;11620;50.050;8.690;2023-02-15T03:34:02;0.90;99.90
22908;DHT22;11620;50.050;8.690;2023-02-15T03:39:59;0.90;99.90
22908;DHT22;11620;50.050;8.690;2023-02-15T03:43:21;0.90;99.90
22908;DHT22;11620;50.050;8.690;2023-02-15T03:49:17;1.00;99.90
22908;DHT22;11620;50.050;8.690;2023-02-15T03:52:07;1.00;99.90
22908;DHT22;11620;50.050;8.690;2023-02-15T03:54:54;0.90;99.90
22908;DHT22;11620;50.050;8.690;2023-02-15T03:57:41;1.00;99.90
22908;DHT22;11620;50.050;8.690;2023-02-15T04:00:59;1.00;99.90
22908;DHT22;11620;50.050;8.690;2023-02-15T04:04:14;1.00;99.90
22908;DHT22;11620;50.050;8.690;2023-02-15T04:07:06;0.90;99.90
22908;DHT22;11620;50.050;8.690;2023-02-15T04:09:52;0.80;99.90
22908;DHT22;11620;50.050;8.690;2023-02-15T04:12:57;0.70;99.90
22908;DHT22;11620;50.050;8.690;2023-02-15T04:15:44;0.50;99.90
22908;DHT22;11620;50.050;8.690;2023-02-15T04:18:48;0.50;99.90
22908;DHT22;11620;50.050;8.690;2023-02-15T04:21:53;0.50;99.90
22908;DHT22;11620;50.050;8.690;2023-02-15T04:24:58;0.50;99.90
22908;DHT22;11620;50.050;8.690;2023-02-15T04:27:57;0.60;99.90
22908;DHT22;11620;50.050;8.690;2023-02-15T04:30:43;0.60;99.90
22908;DHT22;11620;50.050;8.690;2023-02-15T04:33:30;0.60;99.90
22908;DHT22;11620;50.050;8.690;2023-02-15T04:36:16;0.70;99.90
22908;DHT22;11620;50.050;8.690;2023-02-15T04:39:03;0.60;99.90
22908;DHT22;11620;50.050;8.690;2023-02-15T04:41:49;0.70;99.90
22908;DHT22;11620;50.050;8.690;2023-02-15T04:44:35;0.70;99.90
22908;DHT22;11620;50.050;8.690;2023-02-15T04:47:22;0.60;99.90
22908;DHT22;11620;50.050;8.690;2023-02-15T04:50:09;0.60;99.90
22908;DHT22;11620;50.050;8.690;2023-02-15T04:52:55;0.50;99.90
22908;DHT22;11620;50.050;8.690;2023-02-15T04:55:42;0.50;99.90
22908;DHT22;11620;50.050;8.690;2023-02-15T04:58:28;0.60;99.90
22908;DHT22;11620;50.050;8.690;2023-02-15T05:01:15;0.70;99.90
22908;DHT22;11620;50.050;8.690;2023-02-15T05:04:01;0.70;99.90
22908;DHT22;11620;50.050;8.690;2023-02-15T05:06:47;0.70;99.90
22908;DHT22;11620;50.050;8.690;2023-02-15T05:09:34;0.50;99.90
22908;DHT22;11620;50.050;8.690;2023-02-15T05:12:20;0.60;99.90
22908;DHT22;11620;50.050;8.690;2023-02-15T05:15:07;0.60;99.90
22908;DHT22;11620;50.050;8.690;2023-02-15T05:17:53;0.50;99.90
22908;DHT22;11620;50.050;8.690;2023-02-15T05:20:39;0.40;99.90
22908;DHT22;11620;50.050;8.690;2023-02-15T05:23:26;0.40;99.90
22908;DHT22;11620;50.050;8.690;2023-02-15T05:26:17;0.40;99.90
22908;DHT22;11620;50.050;8.690;2023-02-15T05:29:22;0.60;99.90
22908;DHT22;11620;50.050;8.690;2023-02-15T05:32:09;0.60;99.90
22908;DHT22;11620;50.050;8.690;2023-02-15T05:34:56;0.70;99.90
22908;DHT22;11620;50.050;8.690;2023-02-15T05:37:42;0.60;99.90
22908;DHT22;11620;50.050;8.690;2023-02-15T05:40:29;0.60;99.90
22908;DHT22;11620;50.050;8.690;2023-02-15T05:43:15;0.40;99.90
22908;DHT22;11620;50.050;8.690;2023-02-15T05:46:02;0.40;99.90
22908;DHT22;11620;50.050;8.690;2023-02-15T05:48:49;0.50;99.90
22908;DHT22;11620;50.050;8.690;2023-02-15T05:51:35;0.60;99.90
22908;DHT22;11620;50.050;8.690;2023-02-15T05:54:21;0.40;99.90
22908;DHT22;11620;50.050;8.690;2023-02-15T05:57:08;0.50;99.90
22908;DHT22;11620;50.050;8.690;2023-02-15T05:59:54;0.60;99.90
22908;DHT22;11620;50.050;8.690;2023-02-15T06:02:40;0.70;99.90
22908;DHT22;11620;50.050;8.690;2023-02-15T06:05:27;0.60;99.90
22908;DHT22;11620;50.050;8.690;2023-02-15T06:08:13;0.60;99.90
22908;DHT22;11620;50.050;8.690;2023-02-15T06:10:59;0.60;99.90
22908;DHT22;11620;50.050;8.690;2023-02-15T06:13:46;0.70;99.90
22908;DHT22;11620;50.050;8.690;2023-02-15T06:16:32;0.70;99.90
22908;DHT22;11620;50.050;8.690;2023-02-15T06:19:18;0.70;99.90
22908;DHT22;11620;50.050;8.690;2023-02-15T06:22:05;0.70;99.90
22908;DHT22;11620;50.050;8.690;2023-02-15T06:24:52;0.70;99.90
22908;DHT22;11620;50.050;8.690;2023-02-15T06:27:41;0.60;99.90
22908;DHT22;11620;50.050;8.690;2023-02-15T06:30:28;0.70;99.90
22908;DHT22;11620;50.050;8.690;2023-02-15T06:33:14;0.70;99.90
22908;DHT22;11620;50.050;8.690;2023-02-15T06:36:00;0.70;99.90
22908;DHT22;11620;50.050;8.690;2023-02-15T06:38:47;0.70;99.90
22908;DHT22;11620;50.050;8.690;2023-02-15T06:41:34;0.70;99.90
22908;DHT22;11620;50.050;8.690;2023-02-15T06:44:20;0.70;99.90
22908;DHT22;11620;50.050;8.690;2023-02-15T06:47:06;0.50;99.90
22908;DHT22;11620;50.050;8.690;2023-02-15T06:49:53;0.60;99.90
22908;DHT22;11620;50.050;8.690;2023-02-15T06:52:39;0.70;99.90
22908;DHT22;11620;50.050;8.690;2023-02-15T06:55:25;0.60;99.90
22908;DHT22;11620;50.050;8.690;2023-02-15T06:58:12;0.50;99.90
22908;DHT22;11620;50.050;8.690;2023-02-15T07:00:59;0.40;99.90
22908;DHT22;11620;50.050;8.690;2023-02-15T07:03:45;0.40;99.90
22908;DHT22;11620;50.050;8.690;2023-02-15T07:06:32;0.50;99.90
22908;DHT22;11620;50.050;8.690;2023-02-15T07:09:19;0.40;99.90
22908;DHT22;11620;50.050;8.690;2023-02-15T07:12:06;0.30;99.90
22908;DHT22;11620;50.050;8.690;2023-02-15T07:15:17;-0.10;99.90
22908;DHT22;11620;50.050;8.690;2023-02-15T07:18:04;-0.20;99.90
22908;DHT22;11620;50.050;8.690;2023-02-15T07:20:51;-0.60;99.90
22908;DHT22;11620;50.050;8.690;2023-02-15T07:23:38;-0.50;99.90
22908;DHT22;11620;50.050;8.690;2023-02-15T07:26:25;-0.50;99.90
22908;DHT22;11620;50.050;8.690;2023-02-15T07:29:11;-0.50;99.90
22908;DHT22;11620;50.050;8.690;2023-02-15T07:31:57;-0.70;99.90
22908;DHT22;11620;50.050;8.690;2023-02-15T07:34:44;-0.70;99.90
22908;DHT22;11620;50.050;8.690;2023-02-15T07:37:30;-0.60;99.90
22908;DHT22;11620;50.050;8.690;2023-02-15T07:40:16;-0.60;99.90
22908;DHT22;11620;50.050;8.690;2023-02-15T07:43:03;-0.90;99.90
22908;DHT22;11620;50.050;8.690;2023-02-15T07:45:49;-0.70;99.90
22908;DHT22;11620;50.050;8.690;2023-02-15T07:48:36;-0.50;99.90
22908;DHT22;11620;50.050;8.690;2023-02-15T07:51:22;-0.60;99.90
22908;DHT22;11620;50.050;8.690;2023-02-15T07:54:08;-0.40;99.90
22908;DHT22;11620;50.050;8.690;2023-02-15T07:56:55;-0.40;99.90
22908;DHT22;11620;50.050;8.690;2023-02-15T07:59:41;-0.30;99.90
22908;DHT22;11620;50.050;8.690;2023-02-15T08:02:28;-0.20;99.90
22908;DHT22;11620;50.050;8.690;2023-02-15T08:05:15;-0.40;99.90
22908;DHT22;11620;50.050;8.690;2023-02-15T08:08:03;-0.40;99.90
22908;DHT22;11620;50.050;8.690;2023-02-15T08:10:49;-0.30;99.90
22908;DHT22;11620;50.050;8.690;2023-02-15T08:16:49;-0.80;99.90
22908;DHT22;11620;50.050;8.690;2023-02-15T08:19:35;-0.70;99.90
22908;DHT22;11620;50.050;8.690;2023-02-15T08:22:22;-0.60;99.90
22908;DHT22;11620;50.050;8.690;2023-02-15T08:25:08;-0.80;99.90
22908;DHT22;11620;50.050;8.690;2023-02-15T08:27:54;-0.90;99.90
22908;DHT22;11620;50.050;8.690;2023-02-15T08:30:41;-0.70;99.90
22908;DHT22;11620;50.050;8.690;2023-02-15T08:33:27;-0.80;99.90
22908;DHT22;11620;50.050;8.690;2023-02-15T08:36:17;-0.70;99.90
22908;DHT22;11620;50.050;8.690;2023-02-15T08:39:06;-0.70;99.90
22908;DHT22;11620;50.050;8.690;2023-02-15T08:41:52;-0.70;99.90
22908;DHT22;11620;50.050;8.690;2023-02-15T08:44:38;-0.80;99.90
22908;DHT22;11620;50.050;8.690;2023-02-15T08:47:25;-0.70;99.90
22908;DHT22;11620;50.050;8.690;2023-02-15T08:50:11;-0.50;99.90
22908;DHT22;11620;50.050;8.690;2023-02-15T08:52:57;-0.60;99.90
22908;DHT22;11620;50.050;8.690;2023-02-15T08:55:44;-0.60;99.90
22908;DHT22;11620;50.050;8.690;2023-02-15T08:58:30;-0.80;99.90
22908;DHT22;11620;50.050;8.690;2023-02-15T09:01:19;-0.80;99.90
22908;DHT22;11620;50.050;8.690;2023-02-15T09:04:09;-1.00;99.90
22908;DHT22;11620;50.050;8.690;2023-02-15T09:06:55;-1.20;99.90
22908;DHT22;11620;50.050;8.690;2023-02-15T09:09:41;-1.20;99.90
22908;DHT22;11620;50.050;8.690;2023-02-15T09:12:28;-1.20;99.90
22908;DHT22;11620;50.050;8.690;2023-02-15T09:15:14;-1.00;99.90
22908;DHT22;11620;50.050;8.690;2023-02-15T09:18:00;-1.20;99.90
22908;DHT22;11620;50.050;8.690;2023-02-15T09:20:51;-1.10;99.90
22908;DHT22;11620;50.050;8.690;2023-02-15T09:23:38;-0.90;99.90
22908;DHT22;11620;50.050;8.690;2023-02-15T09:26:25;-0.80;99.90
22908;DHT22;11620;50.050;8.690;2023-02-15T09:29:12;-0.70;99.90
22908;DHT22;11620;50.050;8.690;2023-02-15T09:31:59;-0.50;99.90
22908;DHT22;11620;50.050;8.690;2023-02-15T09:34:45;-0.60;99.90
22908;DHT22;11620;50.050;8.690;2023-02-15T09:37:31;-0.50;99.90
22908;DHT22;11620;50.050;8.690;2023-02-15T09:40:18;-0.60;99.90
22908;DHT22;11620;50.050;8.690;2023-02-15T09:43:15;-0.50;99.90
22908;DHT22;11620;50.050;8.690;2023-02-15T09:46:12;-0.40;99.90
22908;DHT22;11620;50.050;8.690;2023-02-15T09:49:13;-0.40;99.90
22908;DHT22;11620;50.050;8.690;2023-02-15T09:55:39;-0.40;99.90
22908;DHT22;11620;50.050;8.690;2023-02-15T10:18:21;0.00;99.90
22908;DHT22;11620;50.050;8.690;2023-02-15T10:27:19;0.10;99.90
22908;DHT22;11620;50.050;8.690;2023-02-15T10:30:21;0.20;99.90
22908;DHT22;11620;50.050;8.690;2023-02-15T10:33:27;0.40;99.90
22908;DHT22;11620;50.050;8.690;2023-02-15T10:36:36;0.40;99.90
22908;DHT22;11620;50.050;8.690;2023-02-15T10:55:00;-0.20;99.90
22908;DHT22;11620;50.050;8.690;2023-02-15T11:00:54;-0.10;99.90
22908;DHT22;11620;50.050;8.690;2023-02-15T11:06:53;-0.10;99.90
22908;DHT22;11620;50.050;8.690;2023-02-15T11:09:46;-0.10;99.90
22908;DHT22;11620;50.050;8.690;2023-02-15T11:12:34;0.10;99.90
22908;DHT22;11620;50.050;8.690;2023-02-15T11:15:40;0.10;99.90
22908;DHT22;11620;50.050;8.690;2023-02-15T11:18:32;-0.10;99.90
22908;DHT22;11620;50.050;8.690;2023-02-15T11:21:21;0.00;99.90
22908;DHT22;11620;50.050;8.690;2023-02-15T11:24:13;0.10;99.90
22908;DHT22;11620;50.050;8.690;2023-02-15T11:30:14;0.20;99.90
22908;DHT22;11620;50.050;8.690;2023-02-15T11:33:03;0.20;99.90
22908;DHT22;11620;50.050;8.690;2023-02-15T11:36:03;0.20;99.90
22908;DHT22;11620;50.050;8.690;2023-02-15T11:38:58;0.30;99.90
22908;DHT22;11620;50.050;8.690;2023-02-15T11:41:49;0.20;99.90
22908;DHT22;11620;50.050;8.690;2023-02-15T11:44:45;0.50;99.90
22908;DHT22;11620;50.050;8.690;2023-02-15T11:47:33;0.30;99.90
22908;DHT22;11620;50.050;8.690;2023-02-15T11:50:23;0.40;99.90
22908;DHT22;11620;50.050;8.690;2023-02-15T11:53:13;0.60;99.90
22908;DHT22;11620;50.050;8.690;2023-02-15T11:56:01;0.60;99.90
22908;DHT22;11620;50.050;8.690;2023-02-15T11:58:58;0.70;99.90
22908;DHT22;11620;50.050;8.690;2023-02-15T12:01:46;0.80;99.90
22908;DHT22;11620;50.050;8.690;2023-02-15T12:04:36;0.90;99.90
22908;DHT22;11620;50.050;8.690;2023-02-15T12:07:30;0.90;99.90
22908;DHT22;11620;50.050;8.690;2023-02-15T12:10:40;0.70;99.90
22908;DHT22;11620;50.050;8.690;2023-02-15T12:13:27;0.80;99.90
22908;DHT22;11620;50.050;8.690;2023-02-15T12:16:13;0.60;99.90
22908;DHT22;11620;50.050;8.690;2023-02-15T12:19:01;0.70;99.90
22908;DHT22;11620;50.050;8.690;2023-02-15T12:21:51;0.70;99.90
22908;DHT22;11620;50.050;8.690;2023-02-15T12:24:44;0.70;99.90
22908;DHT22;11620;50.050;8.690;2023-02-15T12:27:33;0.70;99.90
22908;DHT22;11620;50.050;8.690;2023-02-15T12:30:33;0.90;99.90
22908;DHT22;11620;50.050;8.690;2023-02-15T12:36:24;0.90;99.90
22908;DHT22;11620;50.050;8.690;2023-02-15T12:39:26;0.90;99.90
22908;DHT22;11620;50.050;8.690;2023-02-15T12:42:16;0.90;99.90
22908;DHT22;11620;50.050;8.690;2023-02-15T12:51:07;1.00;99.90
22908;DHT22;11620;50.050;8.690;2023-02-15T12:53:54;1.10;99.90
22908;DHT22;11620;50.050;8.690;2023-02-15T12:56:40;1.20;99.90
22908;DHT22;11620;50.050;8.690;2023-02-15T12:59:27;1.30;99.90
22908;DHT22;11620;50.050;8.690;2023-02-15T13:05:37;1.00;99.90
22908;DHT22;11620;50.050;8.690;2023-02-15T13:08:31;1.10;99.90
22908;DHT22;11620;50.050;8.690;2023-02-15T13:11:29;1.40;99.90
22908;DHT22;11620;50.050;8.690;2023-02-15T13:14:24;1.40;99.90
22908;DHT22;11620;50.050;8.690;2023-02-15T13:17:14;1.50;99.90
22908;DHT22;11620;50.050;8.690;2023-02-15T13:20:09;1.50;99.90
22908;DHT22;11620;50.050;8.690;2023-02-15T13:23:05;1.30;99.90
22908;DHT22;11620;50.050;8.690;2023-02-15T13:25:52;1.10;99.90
22908;DHT22;11620;50.050;8.690;2023-02-15T13:28:45;1.30;99.90
22908;DHT22;11620;50.050;8.690;2023-02-15T13:31:33;1.40;99.90
22908;DHT22;11620;50.050;8.690;2023-02-15T13:34:32;1.40;99.90
22908;DHT22;11620;50.050;8.690;2023-02-15T13:40:48;1.50;99.90
22908;DHT22;11620;50.050;8.690;2023-02-15T13:43:55;1.40;99.90
22908;DHT22;11620;50.050;8.690;2023-02-15T13:46:55;1.30;99.90
22908;DHT22;11620;50.050;8.690;2023-02-15T13:53:08;1.60;99.90
22908;DHT22;11620;50.050;8.690;2023-02-15T13:56:23;1.70;99.90
22908;DHT22;11620;50.050;8.690;2023-02-15T14:02:23;1.30;99.90
22908;DHT22;11620;50.050;8.690;2023-02-15T14:11:23;1.60;99.90
22908;DHT22;11620;50.050;8.690;2023-02-15T14:21:15;1.90;99.90
22908;DHT22;11620;50.050;8.690;2023-02-15T14:24:30;1.80;99.90
22908;DHT22;11620;50.050;8.690;2023-02-15T14:33:08;1.30;99.90
22908;DHT22;11620;50.050;8.690;2023-02-15T14:35:55;1.40;99.90
22908;DHT22;11620;50.050;8.690;2023-02-15T14:42:33;1.70;99.90
22908;DHT22;11620;50.050;8.690;2023-02-15T14:45:22;1.70;99.90
22908;DHT22;11620;50.050;8.690;2023-02-15T14:48:19;1.70;99.90
22908;DHT22;11620;50.050;8.690;2023-02-15T14:51:06;1.80;99.90
22908;DHT22;11620;50.050;8.690;2023-02-15T14:53:52;1.80;99.90
22908;DHT22;11620;50.050;8.690;2023-02-15T14:56:38;1.80;99.90
22908;DHT22;11620;50.050;8.690;2023-02-15T14:59:25;1.80;99.90
22908;DHT22;11620;50.050;8.690;2023-02-15T15:05:34;1.80;99.90
22908;DHT22;11620;50.050;8.690;2023-02-15T15:08:38;1.80;99.90
22908;DHT22;11620;50.050;8.690;2023-02-15T15:26:21;2.10;99.90
22908;DHT22;11620;50.050;8.690;2023-02-15T15:29:08;2.10;99.90
22908;DHT22;11620;50.050;8.690;2023-02-15T15:31:56;1.90;99.90
22908;DHT22;11620;50.050;8.690;2023-02-15T15:35:05;1.80;99.90
22908;DHT22;11620;50.050;8.690;2023-02-15T15:41:39;1.70;99.90
22908;DHT22;11620;50.050;8.690;2023-02-15T15:50:39;1.70;99.90
22908;DHT22;11620;50.050;8.690;2023-02-15T15:53:29;1.70;99.90
22908;DHT22;11620;50.050;8.690;2023-02-15T15:56:26;1.50;99.90
22908;DHT22;11620;50.050;8.690;2023-02-15T15:59:23;1.40;99.90
22908;DHT22;11620;50.050;8.690;2023-02-15T16:02:14;1.30;99.90
22908;DHT22;11620;50.050;8.690;2023-02-15T16:05:08;1.20;99.90
22908;DHT22;11620;50.050;8.690;2023-02-15T16:07:55;1.30;99.90
22908;DHT22;11620;50.050;8.690;2023-02-15T16:10:41;1.40;99.90
22908;DHT22;11620;50.050;8.690;2023-02-15T16:13:28;1.20;99.90
22908;DHT22;11620;50.050;8.690;2023-02-15T16:16:21;1.20;99.90
22908;DHT22;11620;50.050;8.690;2023-02-15T16:19:23;1.20;99.90
22908;DHT22;11620;50.050;8.690;2023-02-15T16:22:16;1.30;99.90
22908;DHT22;11620;50.050;8.690;2023-02-15T16:25:34;1.40;99.90
22908;DHT22;11620;50.050;8.690;2023-02-15T16:28:22;1.20;99.90
22908;DHT22;11620;50.050;8.690;2023-02-15T16:31:14;1.40;99.90
22908;DHT22;11620;50.050;8.690;2023-02-15T16:34:14;1.20;99.90
22908;DHT22;11620;50.050;8.690;2023-02-15T16:37:15;1.30;99.90
22908;DHT22;11620;50.050;8.690;2023-02-15T16:40:01;1.40;99.90
22908;DHT22;11620;50.050;8.690;2023-02-15T16:42:47;1.30;99.90
22908;DHT22;11620;50.050;8.690;2023-02-15T16:45:34;1.40;99.90
22908;DHT22;11620;50.050;8.690;2023-02-15T16:48:25;1.40;99.90
22908;DHT22;11620;50.050;8.690;2023-02-15T16:51:21;1.50;99.90
22908;DHT22;11620;50.050;8.690;2023-02-15T16:54:17;1.50;99.90
22908;DHT22;11620;50.050;8.690;2023-02-15T16:57:04;1.60;99.90
22908;DHT22;11620;50.050;8.690;2023-02-15T16:59:53;1.60;99.90
22908;DHT22;11620;50.050;8.690;2023-02-15T17:02:53;1.50;99.90
22908;DHT22;11620;50.050;8.690;2023-02-15T17:08:32;1.40;99.90
22908;DHT22;11620;50.050;8.690;2023-02-15T17:11:36;1.20;99.90
22908;DHT22;11620;50.050;8.690;2023-02-15T17:14:28;1.30;99.90
22908;DHT22;11620;50.050;8.690;2023-02-15T17:17:15;1.40;99.90
22908;DHT22;11620;50.050;8.690;2023-02-15T17:20:01;1.30;99.90
22908;DHT22;11620;50.050;8.690;2023-02-15T17:22:48;1.30;99.90
22908;DHT22;11620;50.050;8.690;2023-02-15T17:25:39;1.30;99.90
22908;DHT22;11620;50.050;8.690;2023-02-15T17:28:28;1.20;99.90
22908;DHT22;11620;50.050;8.690;2023-02-15T17:31:18;1.10;99.90
22908;DHT22;11620;50.050;8.690;2023-02-15T17:34:04;0.90;99.90
22908;DHT22;11620;50.050;8.690;2023-02-15T17:36:58;0.60;99.90
22908;DHT22;11620;50.050;8.690;2023-02-15T17:39:45;0.60;99.90
22908;DHT22;11620;50.050;8.690;2023-02-15T17:42:31;0.70;99.90
22908;DHT22;11620;50.050;8.690;2023-02-15T17:45:18;0.70;99.90
22908;DHT22;11620;50.050;8.690;2023-02-15T17:48:06;0.80;99.90
22908;DHT22;11620;50.050;8.690;2023-02-15T17:50:52;0.90;99.90
22908;DHT22;11620;50.050;8.690;2023-02-15T17:53:39;1.00;99.90
22908;DHT22;11620;50.050;8.690;2023-02-15T17:56:25;0.90;99.90
22908;DHT22;11620;50.050;8.690;2023-02-15T17:59:12;0.90;99.90
22908;DHT22;11620;50.050;8.690;2023-02-15T18:02:00;0.90;99.90
22908;DHT22;11620;50.050;8.690;2023-02-15T18:05:11;0.70;99.90
22908;DHT22;11620;50.050;8.690;2023-02-15T18:08:18;0.70;99.90
22908;DHT22;11620;50.050;8.690;2023-02-15T18:11:26;0.70;99.90
22908;DHT22;11620;50.050;8.690;2023-02-15T18:14:22;0.80;99.90
22908;DHT22;11620;50.050;8.690;2023-02-15T18:17:11;0.90;99.90
22908;DHT22;11620;50.050;8.690;2023-02-15T18:20:04;1.00;99.90
22908;DHT22;11620;50.050;8.690;2023-02-15T18:22:51;1.00;99.90
22908;DHT22;11620;50.050;8.690;2023-02-15T18:25:38;1.00;99.90
22908;DHT22;11620;50.050;8.690;2023-02-15T18:28:24;1.00;99.90
22908;DHT22;11620;50.050;8.690;2023-02-15T18:31:11;1.10;99.90
22908;DHT22;11620;50.050;8.690;2023-02-15T18:34:00;0.90;99.90
22908;DHT22;11620;50.050;8.690;2023-02-15T18:36:48;0.80;99.90
22908;DHT22;11620;50.050;8.690;2023-02-15T18:39:36;0.90;99.90
22908;DHT22;11620;50.050;8.690;2023-02-15T18:45:18;0.70;99.90
22908;DHT22;11620;50.050;8.690;2023-02-15T18:48:06;0.70;99.90
22908;DHT22;11620;50.050;8.690;2023-02-15T18:50:55;0.70;99.90
22908;DHT22;11620;50.050;8.690;2023-02-15T18:53:42;0.70;99.90
22908;DHT22;11620;50.050;8.690;2023-02-15T18:56:29;0.60;99.90
22908;DHT22;11620;50.050;8.690;2023-02-15T18:59:16;0.70;99.90
22908;DHT22;11620;50.050;8.690;2023-02-15T19:02:03;0.80;99.90
22908;DHT22;11620;50.050;8.690;2023-02-15T19:04:52;0.90;99.90
22908;DHT22;11620;50.050;8.690;2023-02-15T19:07:38;0.90;99.90
22908;DHT22;11620;50.050;8.690;2023-02-15T19:10:27;0.80;99.90
22908;DHT22;11620;50.050;8.690;2023-02-15T19:13:15;0.80;99.90
22908;DHT22;11620;50.050;8.690;2023-02-15T19:16:02;0.80;99.90
22908;DHT22;11620;50.050;8.690;2023-02-15T19:18:51;0.70;99.90
22908;DHT22;11620;50.050;8.690;2023-02-15T19:21:37;0.90;99.90
22908;DHT22;11620;50.050;8.690;2023-02-15T19:24:36;0.90;99.90
22908;DHT22;11620;50.050;8.690;2023-02-15T19:30:14;0.80;99.90
22908;DHT22;11620;50.050;8.690;2023-02-15T19:33:01;0.80;99.90
22908;DHT22;11620;50.050;8.690;2023-02-15T19:35:52;0.90;99.90
22908;DHT22;11620;50.050;8.690;2023-02-15T19:38:41;0.80;99.90
22908;DHT22;11620;50.050;8.690;2023-02-15T19:41:31;0.80;99.90
22908;DHT22;11620;50.050;8.690;2023-02-15T19:44:18;0.90;99.90
22908;DHT22;11620;50.050;8.690;2023-02-15T19:47:12;0.90;99.90
22908;DHT22;11620;50.050;8.690;2023-02-15T19:49:58;1.00;99.90
22908;DHT22;11620;50.050;8.690;2023-02-15T19:52:46;1.10;99.90
22908;DHT22;11620;50.050;8.690;2023-02-15T19:55:34;1.10;99.90
22908;DHT22;11620;50.050;8.690;2023-02-15T19:58:20;1.00;99.90
22908;DHT22;11620;50.050;8.690;2023-02-15T20:01:07;0.80;99.90
22908;DHT22;11620;50.050;8.690;2023-02-15T20:03:54;0.60;99.90
22908;DHT22;11620;50.050;8.690;2023-02-15T20:06:40;0.60;99.90
22908;DHT22;11620;50.050;8.690;2023-02-15T20:09:31;0.60;99.90
22908;DHT22;11620;50.050;8.690;2023-02-15T20:12:24;0.70;99.90
22908;DHT22;11620;50.050;8.690;2023-02-15T20:15:20;0.70;99.90
22908;DHT22;11620;50.050;8.690;2023-02-15T20:18:06;0.90;99.90
22908;DHT22;11620;50.050;8.690;2023-02-15T20:20:54;0.90;99.90
22908;DHT22;11620;50.050;8.690;2023-02-15T20:23:40;0.80;99.90
22908;DHT22;11620;50.050;8.690;2023-02-15T20:26:26;0.60;99.90
22908;DHT22;11620;50.050;8.690;2023-02-15T20:29:17;0.60;99.90
22908;DHT22;11620;50.050;8.690;2023-02-15T20:32:03;0.70;99.90
22908;DHT22;11620;50.050;8.690;2023-02-15T20:34:50;0.80;99.90
22908;DHT22;11620;50.050;8.690;2023-02-15T20:37:36;0.80;99.90
22908;DHT22;11620;50.050;8.690;2023-02-15T20:40:28;0.70;99.90
22908;DHT22;11620;50.050;8.690;2023-02-15T20:43:14;0.80;99.90
22908;DHT22;11620;50.050;8.690;2023-02-15T20:46:01;0.90;99.90
22908;DHT22;11620;50.050;8.690;2023-02-15T20:48:48;0.90;99.90
22908;DHT22;11620;50.050;8.690;2023-02-15T20:51:34;1.00;99.90
22908;DHT22;11620;50.050;8.690;2023-02-15T20:54:23;1.20;99.90
22908;DHT22;11620;50.050;8.690;2023-02-15T20:57:13;1.20;99.90
22908;DHT22;11620;50.050;8.690;2023-02-15T20:59:59;1.20;99.90
22908;DHT22;11620;50.050;8.690;2023-02-15T21:02:47;1.20;99.90
22908;DHT22;11620;50.050;8.690;2023-02-15T21:05:35;1.20;99.90
22908;DHT22;11620;50.050;8.690;2023-02-15T21:08:22;1.30;99.90